Salado, Texas
Current Conditions -  °F | °C
As of 3:55 PM on Friday 24 Oct 2014 (Local Time) from KILE Reporting Station
Few Clouds Few Clouds  
Wind Chill: 84°   Ceiling: Unl
Heat Index: 84°   Visibility: 10mi
Dew Point: 59°   Wind: 6mph
Humidity: 42%   Direction: 150°SSE
Pressure: 30.08"   Gusts: NA
Location:  30.95°N, 97.54°W
Report Text: KILE 242055Z AUTO 15005KT 10SM FEW055 29/15 A3008 RMK AO1 57024
Loading
Personal Weather Stations






























Interactive Weather Map
Tropical Storm Tracking
New forecast layout! Learn more

10-Day Weather Forecast

Advertisements
Track Severe Weather on mobile